KGXY/GXY METAR and TAF weather

Enter ICAO airport designator
Station Type Date Time Source
KGXY METAR 2019/02/20 22:56 UTC NOAA

KGXY 202256Z AUTO VRB05KT 10SM CLR 03/M21 A2961 RMK AO2 SLP069 T00331206


Station Type Date Time Source
KGXY Decoded METAR 2019/02/20 22:56 UTC NOAA

Greeley, Greeley-Weld County Airport, CO, United States (KGXY) 40-26N 104-38W
Feb 20, 2019 - 05:56 PM EST / 2019.02.20 2256 UTC
Wind: Variable at 6 MPH (5 KT):0
Visibility: 10 mile(s):0
Sky conditions: clear
Temperature: 37.9 F (3.3 C)
Dew Point: -5.1 F (-20.6 C)
Relative Humidity: 15%
Pressure (altimeter): 29.61 in. Hg (1002 hPa)
ob: KGXY 202256Z AUTO VRB05KT 10SM CLR 03/M21 A2961 RMK AO2 SLP069 T00331206
cycle: 23

Station Type Date Time Source
KGXY TAF UTC NOAA

Error!


Example: see airport list